Medford, WI

7:24 PM CDT on August 23, 2017 (GMT -0500)
Taylor County

Weather History for KMDZ - January, 2014

Change the Weather History Date:

Thursday, January 23, 2014

  Actual Average Record
Temperature  
Mean Temperature -7 °F -  
Max Temperature 0 °F 25 °F 40 °F (1967)
Min Temperature -15 °F 4 °F -36 °F (1963)
Degree Days  
Heating Degree Days 72    
Moisture  
Dew Point -15 °F    
Average Humidity 72    
Maximum Humidity 80    
Minimum Humidity 58    
Precipitation  
Precipitation 0.00 in - - ()
Sea Level Pressure  
Sea Level Pressure 30.37 in    
Wind  
Wind Speed 12 mph (WNW)    
Max Wind Speed 17 mph    
Max Gust Speed 22 mph    
Visibility 8 miles    
Events Snow    
Averages and records for this station are not official NWS values.
T = Trace of Precipitation, MM = Missing Value Source: NWS Daily Summary

Daily Weather History Graph

Daily Weather History Graph

Search for Another Location

Airport or City:

Trip Planner

Search our weather history database for the weather conditions in past years. The results will help you decide how hot, cold, wet, or windy it might be!

Date:

Astronomy

Jan. 23, 2014 Rise Set
Actual Time 7:30 AM CST 4:56 PM CST
Civil Twilight 6:58 AM CST 5:28 PM CST
Nautical Twilight 6:22 AM CST 6:04 PM CST
Astronomical Twilight 5:47 AM CST 6:39 PM CST
Moon No Moon Rise 10:44 AM CST (1/23)
Length of Visible Light 10h 30m
Length of Day
9h 25m
Waning Gibbous, 55% of the Moon is Illuminated
Jan 23
Waning Gibbous
Jan 23
Last Quarter
Jan 30
New
Feb 6
First Quarter
Feb 14
Full

Hourly Weather History & Observations

Time (CST) Temp. Windchill Dew Point Humidity Pressure Visibility Wind Dir Wind Speed Gust Speed Precip Events Conditions
12:15 AM -6.3 °F -28.9 °F -12.1 °F 76% 30.17 in 1.8 mi NW 17.3 mph 21.9 mph N/A Snow Light Snow
12:35 AM -6.3 °F -28.2 °F -11.9 °F 77% 30.18 in 3.0 mi NW 16.1 mph 21.9 mph N/A   Haze
12:55 AM -6.7 °F -27.9 °F -12.3 °F 77% 30.18 in 4.0 mi NW 15.0 mph - N/A   Haze
1:15 AM -6.5 °F -28.4 °F -12.1 °F 77% 30.20 in 2.5 mi NW 16.1 mph 21.9 mph N/A Snow Light Snow
1:35 AM -7.1 °F -28.4 °F -12.8 °F 76% 30.21 in 3.0 mi NW 15.0 mph - N/A   Haze
1:55 AM -6.9 °F -28.9 °F -12.3 °F 77% 30.22 in 5.0 mi NW 16.1 mph 19.6 mph N/A   Haze
2:15 AM -7.8 °F -27.7 °F -13.2 °F 77% 30.23 in 5.0 mi NW 12.7 mph - N/A   Haze
2:35 AM -7.8 °F -27.7 °F -13.0 °F 78% 30.24 in 7.0 mi NW 12.7 mph - N/A   Clear
2:55 AM -8.1 °F -28.2 °F -13.2 °F 79% 30.25 in 7.0 mi NW 12.7 mph 18.4 mph N/A   Clear
3:15 AM -8.5 °F -28.6 °F -13.4 °F 79% 30.26 in 10.0 mi NW 12.7 mph - N/A   Clear
3:35 AM -8.5 °F -28.6 °F -13.5 °F 79% 30.27 in 10.0 mi NNW 12.7 mph - N/A   Clear
3:55 AM -8.5 °F -26.8 °F -13.5 °F 79% 30.29 in 7.0 mi NW 10.4 mph - N/A   Clear
4:15 AM -8.7 °F -28.9 °F -13.7 °F 79% 30.30 in 10.0 mi NW 12.7 mph 17.3 mph N/A   Clear
4:35 AM -8.7 °F -28.9 °F -13.7 °F 79% 30.31 in 5.0 mi NW 12.7 mph - N/A   Haze
4:55 AM -8.7 °F -28.9 °F -13.5 °F 79% 30.32 in 5.0 mi NW 12.7 mph - N/A   Haze
5:15 AM -9.4 °F -29.8 °F -14.3 °F 79% 30.33 in 5.0 mi NW 12.7 mph 18.4 mph N/A   Clear
5:35 AM -9.9 °F -30.5 °F -14.8 °F 79% 30.34 in 5.0 mi NW 12.7 mph - N/A   Haze
5:55 AM -9.6 °F -30.8 °F -14.6 °F 78% 30.36 in 5.0 mi NNW 13.8 mph 18.4 mph N/A   Haze
6:15 AM -9.9 °F -30.5 °F -14.8 °F 79% 30.37 in 5.0 mi NW 12.7 mph - N/A   Haze
6:35 AM -9.8 °F -29.3 °F -14.8 °F 78% 30.39 in 7.0 mi NW 11.5 mph - N/A   Clear
6:55 AM -9.4 °F -27.9 °F -14.1 °F 80% 30.40 in 7.0 mi NNW 10.4 mph - N/A   Clear
7:15 AM -9.6 °F -27.0 °F -14.4 °F 79% 30.41 in 10.0 mi NW 9.2 mph - N/A   Clear
7:35 AM -11.2 °F -30.1 °F -15.9 °F 80% 30.42 in 5.0 mi NW 10.4 mph - N/A   Haze
7:55 AM -11.6 °F -30.6 °F -16.6 °F 78% 30.42 in 7.0 mi NW 10.4 mph - N/A   Clear
8:15 AM -11.4 °F -31.4 °F -16.4 °F 78% 30.44 in 10.0 mi NW 11.5 mph - N/A   Clear
8:35 AM -11.2 °F -30.1 °F -16.1 °F 79% 30.44 in 10.0 mi NW 10.4 mph - N/A   Clear
8:55 AM -11.0 °F -29.9 °F -16.4 °F 77% 30.44 in 10.0 mi NW 10.4 mph - N/A   Clear
9:15 AM -9.9 °F -29.6 °F -15.3 °F 77% 30.45 in 10.0 mi NW 11.5 mph - N/A   Clear
9:35 AM -9.2 °F -27.7 °F -15.0 °F 76% 30.45 in 10.0 mi NW 10.4 mph - N/A   Clear
9:55 AM -8.0 °F -27.1 °F -13.9 °F 75% 30.46 in 10.0 mi NNW 11.5 mph - N/A   Clear
10:15 AM -7.2 °F -25.2 °F -13.7 °F 73% 30.47 in 10.0 mi NNW 10.4 mph - N/A   Clear
10:35 AM -6.5 °F -25.3 °F -13.0 °F 73% 30.47 in 7.0 mi NNW 11.5 mph - N/A   Clear
10:55 AM -5.6 °F -23.2 °F -12.8 °F 71% 30.47 in 7.0 mi NW 10.4 mph - N/A   Clear
11:15 AM -4.4 °F -23.4 °F -12.1 °F 69% 30.47 in 10.0 mi NW 12.7 mph - N/A   Clear
11:35 AM -3.3 °F -19.3 °F -11.2 °F 69% 30.47 in 10.0 mi NW 9.2 mph - N/A   Clear
11:55 AM -2.6 °F -19.4 °F -11.2 °F 67% 30.47 in 10.0 mi NW 10.4 mph - N/A   Clear
12:15 PM -1.7 °F -17.3 °F -10.8 °F 65% 30.47 in 10.0 mi West 9.2 mph - N/A   Clear
12:35 PM -1.3 °F -15.7 °F -11.2 °F 63% 30.46 in 10.0 mi West 8.1 mph - N/A   Clear
12:55 PM -0.6 °F -17.8 °F -10.7 °F 62% 30.46 in 10.0 mi West 11.5 mph - N/A   Clear
1:15 PM -0.6 °F -14.9 °F -11.6 °F 60% 30.45 in 10.0 mi West 8.1 mph - N/A   Clear
1:35 PM -0.6 °F -16.0 °F -11.7 °F 59% 30.45 in 10.0 mi West 9.2 mph - N/A   Clear
1:55 PM -0.8 °F -18.0 °F -12.1 °F 59% 30.44 in 10.0 mi West 11.5 mph - N/A   Clear
2:15 PM -1.1 °F -16.6 °F -12.3 °F 59% 30.44 in 10.0 mi West 9.2 mph - N/A   Clear
2:35 PM -1.3 °F -16.8 °F -12.3 °F 60% 30.44 in 10.0 mi West 9.2 mph - N/A   Clear
2:55 PM -1.5 °F -19.0 °F -12.5 °F 60% 30.44 in 10.0 mi West 11.5 mph - N/A   Clear
3:15 PM -1.5 °F -19.0 °F -13.0 °F 58% 30.44 in 10.0 mi West 11.5 mph - N/A   Clear
3:35 PM -4.0 °F -20.2 °F -14.8 °F 60% 30.44 in 10.0 mi SW 9.2 mph - N/A   Clear
3:55 PM -4.9 °F -22.3 °F -15.3 °F 61% 30.44 in 10.0 mi WSW 10.4 mph - N/A   Clear
4:15 PM -6.0 °F -22.6 °F -16.1 °F 62% 30.44 in 10.0 mi WSW 9.2 mph - N/A   Clear
4:35 PM -6.9 °F -21.2 °F -17.0 °F 62% 30.44 in 10.0 mi WSW 6.9 mph - N/A   Clear
4:55 PM -7.6 °F -20.6 °F -17.3 °F 63% 30.43 in 10.0 mi WSW 5.8 mph - N/A   Clear
5:15 PM -8.9 °F -25.0 °F -18.6 °F 62% 30.43 in 10.0 mi WSW 8.1 mph - N/A   Clear
5:35 PM -9.9 °F -26.3 °F -19.3 °F 63% 30.43 in 10.0 mi WSW 8.1 mph - N/A   Clear
5:55 PM -10.5 °F -25.6 °F -19.3 °F 65% 30.42 in 10.0 mi WSW 6.9 mph - N/A   Clear
6:15 PM -11.2 °F -27.8 °F -19.3 °F 67% 30.41 in 10.0 mi WSW 8.1 mph - N/A   Clear
6:35 PM -12.1 °F -28.9 °F -19.8 °F 68% 30.40 in 10.0 mi WSW 8.1 mph - N/A   Clear
6:55 PM -12.3 °F -29.1 °F -20.2 °F 68% 30.40 in 10.0 mi WSW 8.1 mph - N/A   Clear
7:15 PM -12.5 °F -29.3 °F -20.2 °F 68% 30.39 in 10.0 mi WSW 8.1 mph - N/A   Clear
7:35 PM -12.8 °F -32.1 °F -20.2 °F 70% 30.38 in 10.0 mi WSW 10.4 mph - N/A   Clear
7:55 PM -13.0 °F -32.4 °F -20.2 °F 70% 30.37 in 10.0 mi West 10.4 mph - N/A   Clear
8:35 PM -14.1 °F -28.3 °F -20.6 °F 73% 30.34 in 10.0 mi SW 5.8 mph - N/A   Clear
8:55 PM -14.4 °F -30.3 °F -20.7 °F 73% 30.32 in 10.0 mi SW 6.9 mph - N/A   Clear
9:15 PM -14.3 °F -31.5 °F -20.6 °F 73% 30.32 in 10.0 mi WSW 8.1 mph - N/A   Clear
9:55 PM -14.4 °F -30.3 °F -20.4 °F 75% 30.29 in 10.0 mi SW 6.9 mph - N/A   Clear
10:15 PM -14.1 °F -31.3 °F -19.7 °F 76% 30.28 in 10.0 mi SW 8.1 mph - N/A   Clear
10:35 PM -14.3 °F -31.5 °F -19.8 °F 76% 30.26 in 10.0 mi SW 8.1 mph - N/A   Clear
10:55 PM -14.3 °F -30.1 °F -19.3 °F 78% 30.25 in 10.0 mi SSW 6.9 mph - N/A   Clear
11:15 PM -14.3 °F -31.5 °F -19.3 °F 78% 30.22 in 10.0 mi SW 8.1 mph - N/A   Clear
11:35 PM -14.4 °F -31.8 °F -19.3 °F 79% 30.21 in 10.0 mi SW 8.1 mph - N/A   Clear
11:55 PM -15.0 °F -33.7 °F -19.7 °F 79% 30.19 in 10.0 mi SSW 9.2 mph - N/A   Clear